Hovedside
METAR-TAF:

METAR-TAF

Lufthavner :

Upington, Sør-Afrika

breddegrad: 28-24S, lengdegrad: 021-16E, høyde over havet: 839 m

Gjeldene værobservasjon

Denne rapporten ble laget for 1 time og 8 minutter siden, klokken 21:00 UTC
Vind 7 kt fra Nord
Temperatur 14°C
Luftfuktighet 38%
Trykk 1027 hPa

METAR: FAUP 232100Z AUTO 01007KT //// // ////// 14/M00 Q1027

Tid: 00:08 (22:08 UTC)

Varsel

Denne rapporten ble laget for 6 timer og 8 minutter siden, klokken 16:00 UTC
Varsel gyldig fra 23. klokken 18 UTC til 24. klokken 18 UTC
Vind 10 kt fra Nord
Sikt 10 km eller mer
ingen skyer under 1500 m og ingen bygeskyer

TAF: FAUP 231600Z 2318/2418 01010KT CAVOK TX24/2412Z TN07/2404Z

Værobservasjoner og værvarsel for over 4000 flyplasser (METAR- og TAF-rapporter).

Tilgjengelige stasjoner er representert av de røde og gule prikkene på kartet.

Hold musepekeren over prikken for å se navnet på stasjonen.

Klikk så for å se værobservasjoner og -varsler.

For å forandre kartet kan du klikke på den grønne knappen med svart kryss for å zoome inn, på den grønne knappen med strek for å zoome ut, eller på de grønne pilene for å se tilstøtende kart.


METAR-TAF: